createdAt,value
2022-12-25T00:00:20.344Z,20.65
2022-12-25T00:03:30.109Z,19.32
2022-12-25T00:06:38.001Z,19.20
2022-12-25T00:09:44.615Z,20.04
2022-12-25T00:12:50.335Z,20.58
2022-12-25T00:15:57.126Z,25.14
2022-12-25T00:19:05.488Z,30.90
2022-12-25T00:22:12.018Z,26.17
2022-12-25T00:25:17.892Z,22.99
2022-12-25T00:28:26.937Z,22.73
2022-12-25T00:31:32.781Z,27.79
2022-12-25T00:34:42.068Z,41.15
2022-12-25T00:37:47.714Z,35.57
2022-12-25T00:40:54.847Z,27.74
2022-12-25T00:44:00.500Z,26.30
2022-12-25T00:47:07.541Z,28.42
2022-12-25T00:50:16.025Z,25.89
2022-12-25T00:53:22.463Z,25.71
2022-12-25T00:56:28.441Z,25.80
2022-12-25T00:59:35.596Z,25.18
2022-12-25T01:02:43.171Z,28.73
2022-12-25T01:06:02.071Z,24.65
2022-12-25T01:09:20.454Z,24.78
2022-12-25T01:12:27.630Z,23.51
2022-12-25T01:15:33.236Z,29.44
2022-12-25T01:18:40.675Z,28.61
2022-12-25T01:21:48.966Z,26.10
2022-12-25T01:24:55.482Z,24.32
2022-12-25T01:28:02.930Z,24.95
2022-12-25T01:31:14.657Z,26.22
2022-12-25T01:34:20.425Z,28.08
2022-12-25T01:37:29.882Z,28.82
2022-12-25T01:40:37.716Z,31.17
2022-12-25T01:44:06.560Z,31.80
2022-12-25T01:47:12.185Z,33.13
2022-12-25T01:50:19.615Z,33.15
2022-12-25T01:53:29.686Z,36.99
2022-12-25T01:56:40.738Z,33.18
2022-12-25T01:59:47.920Z,30.84
2022-12-25T02:02:54.634Z,29.63
2022-12-25T02:06:01.858Z,30.45
2022-12-25T02:09:11.322Z,30.58
2022-12-25T02:12:26.067Z,31.79
2022-12-25T02:15:48.805Z,32.00
2022-12-25T02:19:06.272Z,33.50
2022-12-25T02:22:37.870Z,32.59
2022-12-25T02:26:11.185Z,30.92
2022-12-25T02:29:32.032Z,29.77
2022-12-25T02:32:47.995Z,29.23
2022-12-25T02:35:59.944Z,30.72
2022-12-25T02:39:34.791Z,32.32
2022-12-25T02:43:03.255Z,33.47
2022-12-25T02:46:32.549Z,29.75
2022-12-25T02:49:54.358Z,28.51
2022-12-25T02:53:18.555Z,27.32
2022-12-25T02:56:43.295Z,25.87
2022-12-25T03:00:09.768Z,24.61
2022-12-25T03:03:33.814Z,24.45
2022-12-25T03:06:48.758Z,24.86
2022-12-25T03:10:14.915Z,26.00
2022-12-25T03:13:27.363Z,25.29
2022-12-25T03:16:46.819Z,26.36
2022-12-25T03:20:08.643Z,25.53
2022-12-25T03:23:34.472Z,25.96
2022-12-25T03:26:54.092Z,26.63
2022-12-25T03:30:20.777Z,27.15
2022-12-25T03:34:09.342Z,27.20
2022-12-25T03:37:57.772Z,25.78
2022-12-25T03:41:34.957Z,25.84
2022-12-25T03:45:10.751Z,26.01
2022-12-25T03:48:33.450Z,25.00
2022-12-25T03:51:58.380Z,23.61
2022-12-25T03:55:27.078Z,23.16
2022-12-25T03:58:45.234Z,23.32
2022-12-25T04:02:05.851Z,23.85
2022-12-25T04:05:24.362Z,23.46
2022-12-25T04:08:43.493Z,22.79
2022-12-25T04:12:07.466Z,21.62
2022-12-25T04:15:27.145Z,21.55
2022-12-25T04:18:45.292Z,20.34
2022-12-25T04:22:15.903Z,20.89
2022-12-25T04:25:33.958Z,20.59
2022-12-25T04:28:55.399Z,19.78
2022-12-25T04:32:28.593Z,19.72
2022-12-25T04:35:47.360Z,19.99
2022-12-25T04:38:53.186Z,20.10
2022-12-25T04:42:01.183Z,19.88
2022-12-25T04:45:14.377Z,20.09
2022-12-25T04:48:20.911Z,19.76
2022-12-25T04:51:29.636Z,17.54
2022-12-25T04:54:36.309Z,18.00
2022-12-25T04:57:42.751Z,17.56
2022-12-25T05:00:51.882Z,17.81
2022-12-25T05:03:57.791Z,18.82
2022-12-25T05:07:04.422Z,18.67
2022-12-25T05:10:11.921Z,19.17
2022-12-25T05:13:18.600Z,18.63
2022-12-25T05:16:27.617Z,18.96
2022-12-25T05:19:34.315Z,18.74
2022-12-25T05:22:40.006Z,19.64
2022-12-25T05:25:46.351Z,20.06
2022-12-25T05:28:52.725Z,22.89
2022-12-25T05:32:02.230Z,25.64
2022-12-25T05:35:09.457Z,24.99
2022-12-25T05:38:16.016Z,25.72
2022-12-25T05:41:21.777Z,26.38
2022-12-25T05:44:28.400Z,24.81
2022-12-25T05:47:36.759Z,23.83
2022-12-25T05:50:43.177Z,23.04
2022-12-25T05:53:48.812Z,22.46
2022-12-25T05:56:55.306Z,22.00
2022-12-25T06:00:01.831Z,22.22
2022-12-25T06:03:11.014Z,22.85
2022-12-25T06:06:17.845Z,24.68
2022-12-25T06:09:24.245Z,26.07
2022-12-25T06:12:30.053Z,27.06
2022-12-25T06:15:36.613Z,27.71
2022-12-25T06:18:52.640Z,29.59
2022-12-25T06:22:01.807Z,30.26
2022-12-25T06:25:17.488Z,29.89
2022-12-25T06:28:25.431Z,28.23
2022-12-25T06:31:31.351Z,28.44
2022-12-25T06:34:40.632Z,27.61
2022-12-25T06:37:46.452Z,27.49
2022-12-25T06:40:53.042Z,27.35
2022-12-25T06:44:03.471Z,27.83
2022-12-25T06:47:10.164Z,27.40
2022-12-25T06:50:21.105Z,29.17
2022-12-25T06:53:28.203Z,28.98
2022-12-25T06:56:37.795Z,29.71
2022-12-25T06:59:46.392Z,30.60
2022-12-25T07:02:54.606Z,30.93
2022-12-25T07:06:03.828Z,29.03
2022-12-25T07:09:09.564Z,26.97
2022-12-25T07:12:22.026Z,26.26
2022-12-25T07:15:27.750Z,25.76
2022-12-25T07:18:35.731Z,25.82
2022-12-25T07:21:43.995Z,26.26
2022-12-25T07:24:50.540Z,27.00
2022-12-25T07:27:56.198Z,27.34
2022-12-25T07:31:08.753Z,27.10
2022-12-25T07:34:14.402Z,26.45
2022-12-25T07:37:23.342Z,27.46
2022-12-25T07:40:28.993Z,25.56
2022-12-25T07:43:35.475Z,22.58
2022-12-25T07:46:41.143Z,19.38
2022-12-25T07:49:47.608Z,18.99
2022-12-25T07:52:56.080Z,22.29
2022-12-25T07:56:06.543Z,20.71
2022-12-25T07:59:12.262Z,20.31
2022-12-25T08:02:18.695Z,19.80
2022-12-25T08:05:24.455Z,19.40
2022-12-25T08:08:34.469Z,19.77
2022-12-25T08:11:41.766Z,20.63
2022-12-25T08:14:48.290Z,20.56
2022-12-25T08:17:53.975Z,21.97
2022-12-25T08:21:05.655Z,24.67
2022-12-25T08:24:13.965Z,40.56
2022-12-25T08:27:20.351Z,45.98
2022-12-25T08:30:26.547Z,45.69
2022-12-25T08:33:33.044Z,50.61
2022-12-25T08:36:38.948Z,39.12
2022-12-25T08:39:48.098Z,39.00
2022-12-25T08:42:53.939Z,36.80
2022-12-25T08:46:00.937Z,45.16
2022-12-25T08:49:06.692Z,48.77
2022-12-25T08:52:13.178Z,49.32
2022-12-25T08:55:21.626Z,47.13
2022-12-25T08:58:28.638Z,43.87
2022-12-25T09:01:34.591Z,40.09
2022-12-25T09:04:41.561Z,33.32
2022-12-25T09:07:47.497Z,30.17
2022-12-25T09:10:56.765Z,28.15
2022-12-25T09:14:03.679Z,27.15
2022-12-25T09:17:10.369Z,25.66
2022-12-25T09:20:16.153Z,25.01
2022-12-25T09:23:22.633Z,24.70
2022-12-25T09:26:30.911Z,25.62
2022-12-25T09:29:39.087Z,26.28
2022-12-25T09:32:45.078Z,23.85
2022-12-25T09:35:59.250Z,24.11
2022-12-25T09:39:05.397Z,23.03
2022-12-25T09:42:22.886Z,23.48
2022-12-25T09:45:36.032Z,22.35
2022-12-25T09:48:51.229Z,21.32
2022-12-25T09:52:08.076Z,21.59
2022-12-25T09:55:20.615Z,21.34
2022-12-25T09:58:33.279Z,21.77
2022-12-25T10:02:05.919Z,21.44
2022-12-25T10:06:09.273Z,20.46
2022-12-25T10:09:51.146Z,20.36
2022-12-25T10:13:14.622Z,19.74
2022-12-25T10:16:37.779Z,20.75
2022-12-25T10:19:58.336Z,22.39
2022-12-25T10:23:16.993Z,23.06
2022-12-25T10:26:27.360Z,24.35
2022-12-25T10:29:38.695Z,20.36
2022-12-25T10:32:49.460Z,18.08
2022-12-25T10:35:56.067Z,19.47
2022-12-25T10:39:02.187Z,18.51
2022-12-25T10:42:40.328Z,18.38
2022-12-25T10:45:49.142Z,19.14
2022-12-25T10:49:05.875Z,22.13
2022-12-25T10:52:24.424Z,20.90
2022-12-25T10:55:30.953Z,21.54
2022-12-25T10:58:37.622Z,21.33
2022-12-25T11:01:44.448Z,22.84
2022-12-25T11:05:02.584Z,22.00
2022-12-25T11:08:24.489Z,20.75
2022-12-25T11:11:33.591Z,19.57
2022-12-25T11:14:40.794Z,22.41
2022-12-25T11:17:52.615Z,17.12
2022-12-25T11:21:04.186Z,21.15
2022-12-25T11:24:22.469Z,17.57
2022-12-25T11:27:33.669Z,16.10
2022-12-25T11:30:43.092Z,20.18
2022-12-25T11:34:00.312Z,24.28
2022-12-25T11:37:20.540Z,16.58
2022-12-25T11:40:37.427Z,17.69
2022-12-25T11:43:56.568Z,17.17
2022-12-25T11:47:16.527Z,16.27
2022-12-25T11:50:33.726Z,15.75
2022-12-25T11:53:54.809Z,20.83
2022-12-25T11:57:09.382Z,18.63
2022-12-25T12:00:19.869Z,14.15
2022-12-25T12:03:34.054Z,14.59
2022-12-25T12:06:59.167Z,19.81
2022-12-25T12:10:21.961Z,24.14
2022-12-25T12:13:53.615Z,17.25
2022-12-25T12:16:59.548Z,22.56
2022-12-25T12:20:16.346Z,26.54
2022-12-25T12:23:22.211Z,18.10
2022-12-25T12:26:38.001Z,19.75
2022-12-25T12:29:51.503Z,21.93
2022-12-25T12:33:02.889Z,21.65
2022-12-25T12:36:15.502Z,18.21
2022-12-25T12:39:29.711Z,16.46
2022-12-25T12:42:50.763Z,16.06
2022-12-25T12:46:04.829Z,16.15
2022-12-25T12:49:23.542Z,13.88
2022-12-25T12:52:37.835Z,12.01
2022-12-25T12:55:43.678Z,11.92
2022-12-25T12:58:53.976Z,17.88
2022-12-25T13:02:29.245Z,17.17
2022-12-25T13:05:46.295Z,15.25
2022-12-25T13:09:09.373Z,13.45
2022-12-25T13:12:19.878Z,17.63
2022-12-25T13:15:33.465Z,18.15
2022-12-25T13:18:44.859Z,24.13
2022-12-25T13:21:58.518Z,14.98
2022-12-25T13:25:10.348Z,17.39
2022-12-25T13:28:17.886Z,17.69
2022-12-25T13:31:30.932Z,18.06
2022-12-25T13:34:42.387Z,18.28
2022-12-25T13:37:51.559Z,15.85
2022-12-25T13:41:13.570Z,20.45
2022-12-25T13:44:26.552Z,20.15
2022-12-25T13:47:41.521Z,21.50
2022-12-25T13:50:48.982Z,25.53
2022-12-25T13:54:06.557Z,23.69
2022-12-25T13:57:16.047Z,23.36
2022-12-25T14:00:27.665Z,18.05
2022-12-25T14:03:42.908Z,17.74
2022-12-25T14:06:49.131Z,24.27
2022-12-25T14:10:03.352Z,37.89
2022-12-25T14:13:17.458Z,40.17
2022-12-25T14:16:26.258Z,32.03
2022-12-25T14:19:39.382Z,61.00
2022-12-25T14:22:55.136Z,629.21
2022-12-25T14:26:01.062Z,837.07
2022-12-25T14:29:20.467Z,1127.22
2022-12-25T14:32:34.247Z,641.06
2022-12-25T14:35:46.166Z,698.81
2022-12-25T14:39:04.205Z,254.13
2022-12-25T14:42:23.266Z,44.77
2022-12-25T14:45:35.566Z,38.75
2022-12-25T14:48:42.659Z,57.72
2022-12-25T14:51:51.031Z,41.55
2022-12-25T14:55:03.837Z,41.01
2022-12-25T14:58:21.477Z,127.22
2022-12-25T15:01:35.722Z,1496.34
2022-12-25T15:04:45.858Z,1918.75
2022-12-25T15:08:26.843Z,2408.68
2022-12-25T15:11:33.432Z,1052.42
2022-12-25T15:14:40.522Z,106.81
2022-12-25T15:17:46.572Z,59.62
2022-12-25T15:20:58.761Z,35.99
2022-12-25T15:24:08.094Z,51.13
2022-12-25T15:27:21.564Z,71.65
2022-12-25T15:30:30.584Z,31.46
2022-12-25T15:33:42.220Z,34.50
2022-12-25T15:36:50.112Z,37.17
2022-12-25T15:39:59.588Z,36.00
2022-12-25T15:43:11.365Z,39.71
2022-12-25T15:46:27.465Z,51.01
2022-12-25T15:49:33.137Z,57.57
2022-12-25T15:52:39.828Z,59.66
2022-12-25T15:55:48.125Z,53.94
2022-12-25T15:58:55.219Z,53.07
2022-12-25T16:02:04.553Z,49.27
2022-12-25T16:05:12.244Z,440.90
2022-12-25T16:08:17.938Z,1214.25
2022-12-25T16:11:27.326Z,575.04
2022-12-25T16:14:33.398Z,62.20
2022-12-25T16:17:39.980Z,62.99
2022-12-25T16:20:45.819Z,78.16
2022-12-25T16:23:52.804Z,74.43
2022-12-25T16:27:01.104Z,48.86
2022-12-25T16:30:09.534Z,46.09
2022-12-25T16:33:15.486Z,54.72
2022-12-25T16:36:26.876Z,59.71
2022-12-25T16:39:33.083Z,62.30
2022-12-25T16:42:42.721Z,70.85
2022-12-25T16:45:48.437Z,62.60
2022-12-25T16:48:57.402Z,58.84
2022-12-25T16:52:03.990Z,75.14
2022-12-25T16:55:11.684Z,67.23
2022-12-25T16:58:21.079Z,59.59
2022-12-25T17:01:28.421Z,54.46
2022-12-25T17:04:34.579Z,51.88
2022-12-25T17:07:41.200Z,46.16
2022-12-25T17:10:46.792Z,40.49
2022-12-25T17:13:56.381Z,40.92
2022-12-25T17:17:02.122Z,39.50
2022-12-25T17:20:11.051Z,40.11
2022-12-25T17:23:16.768Z,38.30
2022-12-25T17:26:24.369Z,74.01
2022-12-25T17:29:32.980Z,42.21
2022-12-25T17:32:39.768Z,189.71
2022-12-25T17:35:45.565Z,328.49
2022-12-25T17:38:52.924Z,49.54
2022-12-25T17:41:58.754Z,53.91
2022-12-25T17:45:09.316Z,43.91
2022-12-25T17:48:14.953Z,50.19
2022-12-25T17:51:24.699Z,53.90
2022-12-25T17:54:30.560Z,47.22
2022-12-25T17:57:37.329Z,45.20
2022-12-25T18:00:45.706Z,115.21
2022-12-25T18:03:53.018Z,74.23
2022-12-25T18:06:58.731Z,78.86
2022-12-25T18:10:05.479Z,54.43
2022-12-25T18:13:11.560Z,47.72
2022-12-25T18:16:24.063Z,46.74
2022-12-25T18:19:29.831Z,47.37
2022-12-25T18:22:37.417Z,46.66
2022-12-25T18:25:45.728Z,45.05
2022-12-25T18:28:53.287Z,76.73
2022-12-25T18:32:01.785Z,76.57
2022-12-25T18:35:09.596Z,44.42
2022-12-25T18:38:16.997Z,142.97
2022-12-25T18:41:27.702Z,81.59
2022-12-25T18:44:33.988Z,57.63
2022-12-25T18:47:43.305Z,58.17
2022-12-25T18:50:49.005Z,53.55
2022-12-25T18:53:56.540Z,48.94
2022-12-25T18:57:07.146Z,48.49
2022-12-25T19:00:15.597Z,46.97
2022-12-25T19:03:24.778Z,69.81
2022-12-25T19:06:33.503Z,135.39
2022-12-25T19:09:40.381Z,53.76
2022-12-25T19:12:47.430Z,54.23
2022-12-25T19:15:53.492Z,42.30
2022-12-25T19:19:06.576Z,43.43
2022-12-25T19:22:14.002Z,44.94
2022-12-25T19:25:21.507Z,44.00
2022-12-25T19:28:27.906Z,42.73
2022-12-25T19:31:34.848Z,40.01
2022-12-25T19:34:43.367Z,40.87
2022-12-25T19:37:51.749Z,40.48
2022-12-25T19:41:03.821Z,41.33
2022-12-25T19:44:14.422Z,38.66
2022-12-25T19:47:20.129Z,40.02
2022-12-25T19:50:37.203Z,39.04
2022-12-25T19:53:45.130Z,39.01
2022-12-25T19:56:52.851Z,40.40
2022-12-25T19:59:58.909Z,41.47
2022-12-25T20:03:05.695Z,41.33
2022-12-25T20:06:22.151Z,42.99
2022-12-25T20:09:28.754Z,43.47
2022-12-25T20:12:34.457Z,41.88
2022-12-25T20:15:41.467Z,41.57
2022-12-25T20:18:47.949Z,39.91
2022-12-25T20:21:57.257Z,43.07
2022-12-25T20:25:03.401Z,45.40
2022-12-25T20:28:09.861Z,44.51
2022-12-25T20:31:20.918Z,46.42
2022-12-25T20:34:30.168Z,45.63
2022-12-25T20:37:38.639Z,46.72
2022-12-25T20:41:24.483Z,45.86
2022-12-25T20:44:13.529Z,48.80
2022-12-25T20:47:20.920Z,47.56
2022-12-25T20:50:28.404Z,47.74
2022-12-25T20:53:37.889Z,47.80
2022-12-25T20:56:46.075Z,45.74
2022-12-25T20:59:52.667Z,47.03
2022-12-25T21:02:58.896Z,53.44
2022-12-25T21:06:06.416Z,51.41
2022-12-25T21:09:14.726Z,46.44
2022-12-25T21:12:23.675Z,43.89
2022-12-25T21:15:36.741Z,44.55
2022-12-25T21:18:43.572Z,44.66
2022-12-25T21:21:49.178Z,45.22
2022-12-25T21:24:58.590Z,43.41
2022-12-25T21:28:04.820Z,43.66
2022-12-25T21:31:14.085Z,43.53
2022-12-25T21:34:17.427Z,42.51
2022-12-25T21:37:26.514Z,42.50
2022-12-25T21:40:39.718Z,43.87
2022-12-25T21:43:46.954Z,43.28
2022-12-25T21:46:52.762Z,41.49
2022-12-25T21:50:11.903Z,43.60
2022-12-25T21:53:23.188Z,42.43
2022-12-25T21:56:43.092Z,42.10
2022-12-25T21:59:49.545Z,43.78
2022-12-25T22:02:57.545Z,43.65
2022-12-25T22:06:21.155Z,44.53
2022-12-25T22:09:28.655Z,43.82
2022-12-25T22:12:51.598Z,44.41
2022-12-25T22:16:19.784Z,44.44
2022-12-25T22:19:38.187Z,44.84
2022-12-25T22:22:45.687Z,45.25
2022-12-25T22:25:51.471Z,45.25
2022-12-25T22:29:00.636Z,44.92
2022-12-25T22:32:07.443Z,44.65
2022-12-25T22:35:15.052Z,44.22
2022-12-25T22:38:20.721Z,44.91
2022-12-25T22:41:33.300Z,44.34
2022-12-25T22:44:42.468Z,45.74
2022-12-25T22:47:48.890Z,43.80
2022-12-25T22:50:54.798Z,45.26
2022-12-25T22:54:03.830Z,44.83
2022-12-25T22:57:09.811Z,45.36
2022-12-25T23:00:19.212Z,44.85
2022-12-25T23:03:25.045Z,45.56
2022-12-25T23:06:32.084Z,46.64
2022-12-25T23:09:37.798Z,46.71
2022-12-25T23:12:56.661Z,46.68
2022-12-25T23:16:05.408Z,46.46
2022-12-25T23:19:27.107Z,45.92
2022-12-25T23:22:45.161Z,48.20
2022-12-25T23:26:04.019Z,47.45
2022-12-25T23:29:22.069Z,47.94
2022-12-25T23:32:31.714Z,46.69
2022-12-25T23:35:37.623Z,47.08
2022-12-25T23:38:44.024Z,47.35
2022-12-25T23:41:49.631Z,47.36
2022-12-25T23:44:56.035Z,48.97
2022-12-25T23:48:04.361Z,49.01
2022-12-25T23:51:14.205Z,48.59
2022-12-25T23:54:24.007Z,49.41
2022-12-25T23:57:30.385Z,50.65
